PWSweather.com
Personal Weather Stations
Station Observations
ISARDEGN48
BittiIT 08021

BittiIT 08021

Lat: 40.4805, Lon: 9.3887

Elevation: 1804

Station Type: La Crosse WS2355

http://meteobitti.altervista.org

High Low Average
Temperature 56.5°F13.6°C 44.4°F6.9°C 50.6°F10.3°C
Dew Point 45.5°F7.5°C 41.1°F5.1°C 43.5°F6.4°C
Winds 20.8 mph 33.5 kmh Calm Calm 5.0 mph E8.0 kmh E
Wind Gusts 24.6 mph39.6 kmh -- 11.0 mph17.7 kmh
Humidity 89% 64% 77%
Pressure 29.96 in1014.6 mb 29.86 in1011.2 mb -
Precipitation 0.00 in0.0 mm - -
Hour Temp Dew Point Humidity Winds Wind Gusts Pressure Precip Precip Rate Daily Precip Total
12:00 AM 50.7°F10.4°C 43.4°F6.3°C 76% 10.7 mph SSW17.2 kmh SSW 18.8 mph30.3 kmh 29.86 in1011.2 mb 0.00 in0.0 mm 0.00 in0.0 mm 0.00 in0.0 mm
12:05 AM 50.7°F10.4°C 43.4°F6.3°C 76% 13.2 mph SSW21.2 kmh SSW 20.1 mph32.3 kmh 29.86 in1011.2 mb 0.00 in0.0 mm 0.00 in0.0 mm 0.00 in0.0 mm
12:10 AM 50.7°F10.4°C 43.4°F6.3°C 76% 14.5 mph S23.3 kmh S 20.1 mph32.3 kmh 29.86 in1011.2 mb 0.00 in0.0 mm 0.00 in0.0 mm 0.00 in0.0 mm
12:15 AM 50.7°F10.4°C 43.4°F6.3°C 76% 8.3 mph SSW13.4 kmh SSW 20.4 mph32.8 kmh 29.86 in1011.2 mb 0.00 in0.0 mm 0.00 in0.0 mm 0.00 in0.0 mm
12:20 AM 50.7°F10.4°C 43.4°F6.3°C 76% 9.8 mph SSW15.8 kmh SSW 20.4 mph32.8 kmh 29.86 in1011.2 mb 0.00 in0.0 mm 0.00 in0.0 mm 0.00 in0.0 mm
12:25 AM 50.7°F10.4°C 43.4°F6.3°C 76% 2.0 mph SSW3.2 kmh SSW 17.2 mph27.7 kmh 29.86 in1011.2 mb 0.00 in0.0 mm 0.00 in0.0 mm 0.00 in0.0 mm
12:30 AM 50.7°F10.4°C 43.4°F6.3°C 76% 1.3 mph SSW2.1 kmh SSW 11.6 mph18.7 kmh 29.86 in1011.2 mb 0.00 in0.0 mm 0.00 in0.0 mm 0.00 in0.0 mm
12:35 AM 50.5°F10.3°C 43.2°F6.2°C 76% 4.3 mph S6.9 kmh S 10.7 mph17.2 kmh 29.86 in1011.2 mb 0.00 in0.0 mm 0.00 in0.0 mm 0.00 in0.0 mm
12:40 AM 50.5°F10.3°C 43.2°F6.2°C 76% 6.0 mph S9.7 kmh S 13.9 mph22.4 kmh 29.86 in1011.2 mb 0.00 in0.0 mm 0.00 in0.0 mm 0.00 in0.0 mm
12:45 AM 50.5°F10.3°C 43.2°F6.2°C 76% 3.1 mph S5.0 kmh S 13.9 mph22.4 kmh 29.86 in1011.2 mb 0.00 in0.0 mm 0.00 in0.0 mm 0.00 in0.0 mm
12:50 AM 50.5°F10.3°C 43.2°F6.2°C 76% 1.1 mph SSE1.8 kmh SSE 9.2 mph14.8 kmh 29.86 in1011.2 mb 0.00 in0.0 mm 0.00 in0.0 mm 0.00 in0.0 mm
12:55 AM 50.4°F10.2°C 43.1°F6.2°C 76% 2.9 mph SSE4.7 kmh SSE 7.8 mph12.6 kmh 29.86 in1011.2 mb 0.00 in0.0 mm 0.00 in0.0 mm 0.00 in0.0 mm
01:00 AM 50.4°F10.2°C 43.4°F6.3°C 77% 4.7 mph SE7.6 kmh SE 7.8 mph12.6 kmh 29.86 in1011.2 mb 0.00 in0.0 mm 0.00 in0.0 mm 0.00 in0.0 mm
01:05 AM 50.2°F10.1°C 43.2°F6.2°C 77% 5.6 mph S9.0 kmh S 8.1 mph13.0 kmh 29.86 in1011.2 mb 0.00 in0.0 mm 0.00 in0.0 mm 0.00 in0.0 mm
01:10 AM 50.2°F10.1°C 43.6°F6.4°C 78% 2.2 mph S3.5 kmh S 8.1 mph13.0 kmh 29.86 in1011.2 mb 0.00 in0.0 mm 0.00 in0.0 mm 0.00 in0.0 mm
01:15 AM 50.2°F10.1°C 43.6°F6.4°C 78% 6.7 mph SSW10.8 kmh SSW 13.6 mph21.9 kmh 29.86 in1011.2 mb 0.00 in0.0 mm 0.00 in0.0 mm 0.00 in0.0 mm
01:20 AM 50.2°F10.1°C 43.2°F6.2°C 77% 9.2 mph SSW14.8 kmh SSW 14.5 mph23.3 kmh 29.86 in1011.2 mb 0.00 in0.0 mm 0.00 in0.0 mm 0.00 in0.0 mm
01:25 AM 50.2°F10.1°C 43.2°F6.2°C 77% 4.3 mph SSW6.9 kmh SSW 14.5 mph23.3 kmh 29.86 in1011.2 mb 0.00 in0.0 mm 0.00 in0.0 mm 0.00 in0.0 mm
01:30 AM 50.2°F10.1°C 43.2°F6.2°C 77% 7.8 mph SSW12.6 kmh SSW 10.5 mph16.9 kmh 29.86 in1011.2 mb 0.00 in0.0 mm 0.00 in0.0 mm 0.00 in0.0 mm
01:35 AM 50.2°F10.1°C 43.2°F6.2°C 77% 5.1 mph S8.2 kmh S 12.8 mph20.6 kmh 29.86 in1011.2 mb 0.00 in0.0 mm 0.00 in0.0 mm 0.00 in0.0 mm
01:40 AM 50.2°F10.1°C 43.2°F6.2°C 77% 3.6 mph SSW5.8 kmh SSW 13.6 mph21.9 kmh 29.86 in1011.2 mb 0.00 in0.0 mm 0.00 in0.0 mm 0.00 in0.0 mm
01:45 AM 50.2°F10.1°C 43.6°F6.4°C 78% 2.5 mph SSW4.0 kmh SSW 13.6 mph21.9 kmh 29.86 in1011.2 mb 0.00 in0.0 mm 0.00 in0.0 mm 0.00 in0.0 mm
01:50 AM 50.2°F10.1°C 43.6°F6.4°C 78% 6.9 mph SSW11.1 kmh SSW 10.1 mph16.3 kmh 29.86 in1011.2 mb 0.00 in0.0 mm 0.00 in0.0 mm 0.00 in0.0 mm
01:55 AM 50.0°F10.0°C 43.4°F6.3°C 78% 6.9 mph SSW11.1 kmh SSW 13.4 mph21.6 kmh 29.86 in1011.2 mb 0.00 in0.0 mm 0.00 in0.0 mm 0.00 in0.0 mm
02:00 AM 50.0°F10.0°C 43.4°F6.3°C 78% 3.6 mph SSW5.8 kmh SSW 15.2 mph24.5 kmh 29.86 in1011.2 mb 0.00 in0.0 mm 0.00 in0.0 mm 0.00 in0.0 mm
02:05 AM 50.0°F10.0°C 43.4°F6.3°C 78% 10.5 mph SSW16.9 kmh SSW 16.8 mph27.0 kmh 29.86 in1011.2 mb 0.00 in0.0 mm 0.00 in0.0 mm 0.00 in0.0 mm
02:10 AM 50.2°F10.1°C 43.2°F6.2°C 77% 10.5 mph SSW16.9 kmh SSW 19.7 mph31.7 kmh 29.86 in1011.2 mb 0.00 in0.0 mm 0.00 in0.0 mm 0.00 in0.0 mm
02:15 AM 49.8°F9.9°C 42.9°F6.1°C 77% 6.3 mph SSW10.1 kmh SSW 19.7 mph31.7 kmh 29.86 in1011.2 mb 0.00 in0.0 mm 0.00 in0.0 mm 0.00 in0.0 mm
02:20 AM 50.0°F10.0°C 43.0°F6.1°C 77% 16.3 mph SSW26.2 kmh SSW 21.7 mph34.9 kmh 29.86 in1011.2 mb 0.00 in0.0 mm 0.00 in0.0 mm 0.00 in0.0 mm
02:25 AM 49.8°F9.9°C 42.9°F6.1°C 77% 13.6 mph SSW21.9 kmh SSW 21.7 mph34.9 kmh 29.86 in1011.2 mb 0.00 in0.0 mm 0.00 in0.0 mm 0.00 in0.0 mm
02:30 AM 49.8°F9.9°C 42.9°F6.1°C 77% 6.5 mph SSW10.5 kmh SSW 20.1 mph32.3 kmh 29.86 in1011.2 mb 0.00 in0.0 mm 0.00 in0.0 mm 0.00 in0.0 mm
02:35 AM 50.2°F10.1°C 42.9°F6.1°C 76% 15.2 mph S24.5 kmh S 19.5 mph31.4 kmh 29.86 in1011.2 mb 0.00 in0.0 mm 0.00 in0.0 mm 0.00 in0.0 mm
02:40 AM 50.2°F10.1°C 42.5°F5.8°C 75% 16.8 mph SSW27.0 kmh SSW 20.8 mph33.5 kmh 29.86 in1011.2 mb 0.00 in0.0 mm 0.00 in0.0 mm 0.00 in0.0 mm
02:45 AM 50.2°F10.1°C 42.2°F5.7°C 74% 20.8 mph S33.5 kmh S 21.0 mph33.8 kmh 29.86 in1011.2 mb 0.00 in0.0 mm 0.00 in0.0 mm 0.00 in0.0 mm
02:50 AM 50.4°F10.2°C 42.0°F5.6°C 73% 17.7 mph S28.5 kmh S 21.0 mph33.8 kmh 29.86 in1011.2 mb 0.00 in0.0 mm 0.00 in0.0 mm 0.00 in0.0 mm
02:55 AM 50.4°F10.2°C 42.0°F5.6°C 73% 17.2 mph SSW27.7 kmh SSW 20.1 mph32.3 kmh 29.86 in1011.2 mb 0.00 in0.0 mm 0.00 in0.0 mm 0.00 in0.0 mm
03:00 AM 50.4°F10.2°C 42.0°F5.6°C 73% 16.6 mph S26.7 kmh S 20.1 mph32.3 kmh 29.86 in1011.2 mb 0.00 in0.0 mm 0.00 in0.0 mm 0.00 in0.0 mm
03:05 AM 50.4°F10.2°C 42.0°F5.6°C 73% 5.1 mph S8.2 kmh S 19.5 mph31.4 kmh 29.86 in1011.2 mb 0.00 in0.0 mm 0.00 in0.0 mm 0.00 in0.0 mm
03:10 AM 50.2°F10.1°C 41.8°F5.4°C 73% 4.0 mph SSW6.4 kmh SSW 18.1 mph29.1 kmh 29.86 in1011.2 mb 0.00 in0.0 mm 0.00 in0.0 mm 0.00 in0.0 mm
03:15 AM 50.2°F10.1°C 41.8°F5.4°C 73% 7.6 mph SSW12.2 kmh SSW 18.1 mph29.1 kmh 29.86 in1011.2 mb 0.00 in0.0 mm 0.00 in0.0 mm 0.00 in0.0 mm
03:20 AM 50.2°F10.1°C 42.2°F5.7°C 74% 0.9 mph S1.4 kmh S 15.9 mph25.6 kmh 29.86 in1011.2 mb 0.00 in0.0 mm 0.00 in0.0 mm 0.00 in0.0 mm
03:25 AM 49.8°F9.9°C 42.2°F5.7°C 75% 3.6 mph S5.8 kmh S 12.8 mph20.6 kmh 29.86 in1011.2 mb 0.00 in0.0 mm 0.00 in0.0 mm 0.00 in0.0 mm
03:30 AM 50.2°F10.1°C 42.9°F6.1°C 76% Calm Calm 7.6 mph12.2 kmh 29.86 in1011.2 mb 0.00 in0.0 mm 0.00 in0.0 mm 0.00 in0.0 mm
03:35 AM 50.2°F10.1°C 42.9°F6.1°C 76% 6.9 mph S11.1 kmh S 7.6 mph12.2 kmh 29.86 in1011.2 mb 0.00 in0.0 mm 0.00 in0.0 mm 0.00 in0.0 mm
03:40 AM 50.2°F10.1°C 42.9°F6.1°C 76% 3.4 mph S5.5 kmh S 7.6 mph12.2 kmh 29.87 in1011.5 mb 0.00 in0.0 mm 0.00 in0.0 mm 0.00 in0.0 mm
03:45 AM 50.2°F10.1°C 42.9°F6.1°C 76% 3.8 mph SE6.1 kmh SE 7.6 mph12.2 kmh 29.86 in1011.2 mb 0.00 in0.0 mm 0.00 in0.0 mm 0.00 in0.0 mm
03:50 AM 50.4°F10.2°C 43.4°F6.3°C 77% 8.5 mph SE13.7 kmh SE 8.7 mph14.0 kmh 29.86 in1011.2 mb 0.00 in0.0 mm 0.00 in0.0 mm 0.00 in0.0 mm
03:55 AM 50.2°F10.1°C 43.2°F6.2°C 77% 10.5 mph SE16.9 kmh SE 10.5 mph16.9 kmh 29.86 in1011.2 mb 0.00 in0.0 mm 0.00 in0.0 mm 0.00 in0.0 mm
04:00 AM 50.2°F10.1°C 43.2°F6.2°C 77% 1.1 mph S1.8 kmh S 10.5 mph16.9 kmh 29.87 in1011.5 mb 0.00 in0.0 mm 0.00 in0.0 mm 0.00 in0.0 mm
04:05 AM 50.2°F10.1°C 43.2°F6.2°C 77% 10.7 mph S17.2 kmh S 13.4 mph21.6 kmh 29.86 in1011.2 mb 0.00 in0.0 mm 0.00 in0.0 mm 0.00 in0.0 mm
04:10 AM 50.2°F10.1°C 43.2°F6.2°C 77% Calm Calm 13.4 mph21.6 kmh 29.87 in1011.5 mb 0.00 in0.0 mm 0.00 in0.0 mm 0.00 in0.0 mm
04:15 AM 50.2°F10.1°C 43.6°F6.4°C 78% 2.9 mph SSE4.7 kmh SSE 11.4 mph18.3 kmh 29.87 in1011.5 mb 0.00 in0.0 mm 0.00 in0.0 mm 0.00 in0.0 mm
04:20 AM 50.2°F10.1°C 43.6°F6.4°C 78% 1.8 mph SSE2.9 kmh SSE 8.5 mph13.7 kmh 29.87 in1011.5 mb 0.00 in0.0 mm 0.00 in0.0 mm 0.00 in0.0 mm
04:25 AM 50.2°F10.1°C 43.6°F6.4°C 78% 5.8 mph SE9.3 kmh SE 8.5 mph13.7 kmh 29.87 in1011.5 mb 0.00 in0.0 mm 0.00 in0.0 mm 0.00 in0.0 mm
04:30 AM 50.2°F10.1°C 43.6°F6.4°C 78% 1.8 mph SE2.9 kmh SE 10.5 mph16.9 kmh 29.87 in1011.5 mb 0.00 in0.0 mm 0.00 in0.0 mm 0.00 in0.0 mm
04:35 AM 50.2°F10.1°C 43.6°F6.4°C 78% 2.2 mph SSE3.5 kmh SSE 10.5 mph16.9 kmh 29.87 in1011.5 mb 0.00 in0.0 mm 0.00 in0.0 mm 0.00 in0.0 mm
04:40 AM 50.2°F10.1°C 43.6°F6.4°C 78% 4.7 mph SE7.6 kmh SE 8.9 mph14.3 kmh 29.87 in1011.5 mb 0.00 in0.0 mm 0.00 in0.0 mm 0.00 in0.0 mm
04:45 AM 50.2°F10.1°C 43.6°F6.4°C 78% 3.1 mph SE5.0 kmh SE 10.1 mph16.3 kmh 29.87 in1011.5 mb 0.00 in0.0 mm 0.00 in0.0 mm 0.00 in0.0 mm
04:50 AM 50.2°F10.1°C 43.6°F6.4°C 78% 5.8 mph ESE9.3 kmh ESE 10.1 mph16.3 kmh 29.87 in1011.5 mb 0.00 in0.0 mm 0.00 in0.0 mm 0.00 in0.0 mm
04:55 AM 50.2°F10.1°C 43.6°F6.4°C 78% 1.8 mph SE2.9 kmh SE 8.3 mph13.4 kmh 29.87 in1011.5 mb 0.00 in0.0 mm 0.00 in0.0 mm 0.00 in0.0 mm
05:00 AM 50.0°F10.0°C 43.4°F6.3°C 78% 2.0 mph S3.2 kmh S 8.1 mph13.0 kmh 29.88 in1011.9 mb 0.00 in0.0 mm 0.00 in0.0 mm 0.00 in0.0 mm
05:05 AM 50.0°F10.0°C 43.4°F6.3°C 78% Calm Calm 6.5 mph10.5 kmh 29.88 in1011.9 mb 0.00 in0.0 mm 0.00 in0.0 mm 0.00 in0.0 mm
05:10 AM 49.8°F9.9°C 43.2°F6.2°C 78% 7.4 mph SE11.9 kmh SE 7.4 mph11.9 kmh 29.88 in1011.9 mb 0.00 in0.0 mm 0.00 in0.0 mm 0.00 in0.0 mm
05:15 AM 49.8°F9.9°C 43.2°F6.2°C 78% 3.1 mph SE5.0 kmh SE 7.4 mph11.9 kmh 29.88 in1011.9 mb 0.00 in0.0 mm 0.00 in0.0 mm 0.00 in0.0 mm
05:20 AM 49.8°F9.9°C 43.2°F6.2°C 78% 1.8 mph SE2.9 kmh SE 9.6 mph15.4 kmh 29.88 in1011.9 mb 0.00 in0.0 mm 0.00 in0.0 mm 0.00 in0.0 mm
05:25 AM 49.8°F9.9°C 43.2°F6.2°C 78% 2.9 mph ESE4.7 kmh ESE 9.6 mph15.4 kmh 29.88 in1011.9 mb 0.00 in0.0 mm 0.00 in0.0 mm 0.00 in0.0 mm
05:30 AM 49.8°F9.9°C 43.2°F6.2°C 78% 4.0 mph ESE6.4 kmh ESE 8.9 mph14.3 kmh 29.88 in1011.9 mb 0.00 in0.0 mm 0.00 in0.0 mm 0.00 in0.0 mm
05:35 AM 49.8°F9.9°C 43.2°F6.2°C 78% 4.9 mph ESE7.9 kmh ESE 8.9 mph14.3 kmh 29.88 in1011.9 mb 0.00 in0.0 mm 0.00 in0.0 mm 0.00 in0.0 mm
05:40 AM 49.8°F9.9°C 43.2°F6.2°C 78% 2.9 mph SE4.7 kmh SE 10.3 mph16.6 kmh 29.88 in1011.9 mb 0.00 in0.0 mm 0.00 in0.0 mm 0.00 in0.0 mm
05:45 AM 50.0°F10.0°C 43.4°F6.3°C 78% Calm Calm 10.3 mph16.6 kmh 29.88 in1011.9 mb 0.00 in0.0 mm 0.00 in0.0 mm 0.00 in0.0 mm
05:50 AM 49.8°F9.9°C 43.2°F6.2°C 78% 3.1 mph SE5.0 kmh SE 5.8 mph9.3 kmh 29.88 in1011.9 mb 0.00 in0.0 mm 0.00 in0.0 mm 0.00 in0.0 mm
05:55 AM 49.8°F9.9°C 43.2°F6.2°C 78% 3.1 mph SE5.0 kmh SE 8.9 mph14.3 kmh 29.88 in1011.9 mb 0.00 in0.0 mm 0.00 in0.0 mm 0.00 in0.0 mm
06:00 AM 49.8°F9.9°C 43.2°F6.2°C 78% 0.9 mph SE1.4 kmh SE 8.9 mph14.3 kmh 29.89 in1012.2 mb 0.00 in0.0 mm 0.00 in0.0 mm 0.00 in0.0 mm
06:05 AM 49.8°F9.9°C 43.2°F6.2°C 78% 5.1 mph SE8.2 kmh SE 7.8 mph12.6 kmh 29.89 in1012.2 mb 0.00 in0.0 mm 0.00 in0.0 mm 0.00 in0.0 mm
06:10 AM 49.8°F9.9°C 43.2°F6.2°C 78% Calm Calm 6.5 mph10.5 kmh 29.89 in1012.2 mb 0.00 in0.0 mm 0.00 in0.0 mm 0.00 in0.0 mm
06:15 AM 49.8°F9.9°C 43.2°F6.2°C 78% Calm Calm 6.3 mph10.1 kmh 29.89 in1012.2 mb 0.00 in0.0 mm 0.00 in0.0 mm 0.00 in0.0 mm
06:20 AM 49.8°F9.9°C 43.2°F6.2°C 78% 6.3 mph SE10.1 kmh SE 9.2 mph14.8 kmh 29.89 in1012.2 mb 0.00 in0.0 mm 0.00 in0.0 mm 0.00 in0.0 mm
06:25 AM 49.8°F9.9°C 43.2°F6.2°C 78% 2.2 mph SE3.5 kmh SE 9.6 mph15.4 kmh 29.89 in1012.2 mb 0.00 in0.0 mm 0.00 in0.0 mm 0.00 in0.0 mm
06:30 AM 49.8°F9.9°C 43.5°F6.4°C 79% 2.7 mph ESE4.3 kmh ESE 9.6 mph15.4 kmh 29.89 in1012.2 mb 0.00 in0.0 mm 0.00 in0.0 mm 0.00 in0.0 mm
06:35 AM 49.6°F9.8°C 43.4°F6.3°C 79% 1.3 mph SE2.1 kmh SE 6.0 mph9.7 kmh 29.89 in1012.2 mb 0.00 in0.0 mm 0.00 in0.0 mm 0.00 in0.0 mm
06:40 AM 49.6°F9.8°C 43.4°F6.3°C 79% 4.5 mph ESE7.2 kmh ESE 6.5 mph10.5 kmh 29.89 in1012.2 mb 0.00 in0.0 mm 0.00 in0.0 mm 0.00 in0.0 mm
06:45 AM 49.6°F9.8°C 43.4°F6.3°C 79% 1.6 mph ESE2.6 kmh ESE 8.3 mph13.4 kmh 29.89 in1012.2 mb 0.00 in0.0 mm 0.00 in0.0 mm 0.00 in0.0 mm
06:50 AM 49.6°F9.8°C 43.4°F6.3°C 79% 2.9 mph SE4.7 kmh SE 8.3 mph13.4 kmh 29.90 in1012.5 mb 0.00 in0.0 mm 0.00 in0.0 mm 0.00 in0.0 mm
06:55 AM 49.6°F9.8°C 43.4°F6.3°C 79% 0.9 mph SE1.4 kmh SE 6.3 mph10.1 kmh 29.90 in1012.5 mb 0.00 in0.0 mm 0.00 in0.0 mm 0.00 in0.0 mm
07:00 AM 49.6°F9.8°C 43.4°F6.3°C 79% Calm Calm 6.7 mph10.8 kmh 29.90 in1012.5 mb 0.00 in0.0 mm 0.00 in0.0 mm 0.00 in0.0 mm
07:05 AM 49.8°F9.9°C 43.5°F6.4°C 79% 1.8 mph ESE2.9 kmh ESE 7.4 mph11.9 kmh 29.90 in1012.5 mb 0.00 in0.0 mm 0.00 in0.0 mm 0.00 in0.0 mm
07:10 AM 49.6°F9.8°C 43.0°F6.1°C 78% 3.6 mph ESE5.8 kmh ESE 7.4 mph11.9 kmh 29.89 in1012.2 mb 0.00 in0.0 mm 0.00 in0.0 mm 0.00 in0.0 mm
07:15 AM 49.6°F9.8°C 43.0°F6.1°C 78% 2.2 mph ESE3.5 kmh ESE 5.8 mph9.3 kmh 29.89 in1012.2 mb 0.00 in0.0 mm 0.00 in0.0 mm 0.00 in0.0 mm
07:20 AM 49.6°F9.8°C 43.0°F6.1°C 78% 10.7 mph ESE17.2 kmh ESE 10.7 mph17.2 kmh 29.89 in1012.2 mb 0.00 in0.0 mm 0.00 in0.0 mm 0.00 in0.0 mm
07:25 AM 49.6°F9.8°C 43.0°F6.1°C 78% 3.6 mph ESE5.8 kmh ESE 10.7 mph17.2 kmh 29.89 in1012.2 mb 0.00 in0.0 mm 0.00 in0.0 mm 0.00 in0.0 mm
07:30 AM 49.6°F9.8°C 43.0°F6.1°C 78% 3.8 mph SE6.1 kmh SE 10.7 mph17.2 kmh 29.90 in1012.5 mb 0.00 in0.0 mm 0.00 in0.0 mm 0.00 in0.0 mm
07:35 AM 49.6°F9.8°C 43.4°F6.3°C 79% 2.0 mph ESE3.2 kmh ESE 8.7 mph14.0 kmh 29.90 in1012.5 mb 0.00 in0.0 mm 0.00 in0.0 mm 0.00 in0.0 mm
07:40 AM 49.6°F9.8°C 43.4°F6.3°C 79% Calm Calm 8.7 mph14.0 kmh 29.91 in1012.9 mb 0.00 in0.0 mm 0.00 in0.0 mm 0.00 in0.0 mm
07:45 AM 49.6°F9.8°C 43.4°F6.3°C 79% 2.2 mph SE3.5 kmh SE 5.4 mph8.7 kmh 29.91 in1012.9 mb 0.00 in0.0 mm 0.00 in0.0 mm 0.00 in0.0 mm
07:50 AM 49.6°F9.8°C 43.4°F6.3°C 79% 5.8 mph E9.3 kmh E 5.8 mph9.3 kmh 29.91 in1012.9 mb 0.00 in0.0 mm 0.00 in0.0 mm 0.00 in0.0 mm
07:55 AM 49.8°F9.9°C 43.5°F6.4°C 79% 3.1 mph ESE5.0 kmh ESE 7.4 mph11.9 kmh 29.91 in1012.9 mb 0.00 in0.0 mm 0.00 in0.0 mm 0.00 in0.0 mm
08:00 AM 49.8°F9.9°C 43.5°F6.4°C 79% 2.2 mph SE3.5 kmh SE 7.4 mph11.9 kmh 29.91 in1012.9 mb 0.00 in0.0 mm 0.00 in0.0 mm 0.00 in0.0 mm
08:05 AM 49.8°F9.9°C 43.5°F6.4°C 79% 3.1 mph E5.0 kmh E 7.2 mph11.6 kmh 29.92 in1013.2 mb 0.00 in0.0 mm 0.00 in0.0 mm 0.00 in0.0 mm
08:10 AM 49.8°F9.9°C 43.5°F6.4°C 79% 2.7 mph ENE4.3 kmh ENE 7.2 mph11.6 kmh 29.92 in1013.2 mb 0.00 in0.0 mm 0.00 in0.0 mm 0.00 in0.0 mm
08:15 AM 49.8°F9.9°C 43.5°F6.4°C 79% 0.9 mph E1.4 kmh E 6.9 mph11.1 kmh 29.92 in1013.2 mb 0.00 in0.0 mm 0.00 in0.0 mm 0.00 in0.0 mm
08:20 AM 49.8°F9.9°C 43.5°F6.4°C 79% 2.5 mph E4.0 kmh E 9.6 mph15.4 kmh 29.92 in1013.2 mb 0.00 in0.0 mm 0.00 in0.0 mm 0.00 in0.0 mm
08:25 AM 50.2°F10.1°C 43.6°F6.4°C 78% 7.2 mph NE11.6 kmh NE 12.3 mph19.8 kmh 29.92 in1013.2 mb 0.00 in0.0 mm 0.00 in0.0 mm 0.00 in0.0 mm
08:30 AM 50.2°F10.1°C 43.6°F6.4°C 78% 4.3 mph NE6.9 kmh NE 13.0 mph20.9 kmh 29.92 in1013.2 mb 0.00 in0.0 mm 0.00 in0.0 mm 0.00 in0.0 mm
08:35 AM 50.4°F10.2°C 43.7°F6.5°C 78% 4.9 mph NE7.9 kmh NE 13.0 mph20.9 kmh 29.92 in1013.2 mb 0.00 in0.0 mm 0.00 in0.0 mm 0.00 in0.0 mm
08:40 AM 50.4°F10.2°C 43.7°F6.5°C 78% 2.5 mph NE4.0 kmh NE 11.4 mph18.3 kmh 29.92 in1013.2 mb 0.00 in0.0 mm 0.00 in0.0 mm 0.00 in0.0 mm
08:45 AM 50.4°F10.2°C 43.7°F6.5°C 78% 13.4 mph E21.6 kmh E 13.4 mph21.6 kmh 29.93 in1013.5 mb 0.00 in0.0 mm 0.00 in0.0 mm 0.00 in0.0 mm
08:50 AM 50.5°F10.3°C 43.6°F6.4°C 77% 10.3 mph E16.6 kmh E 14.3 mph23.0 kmh 29.93 in1013.5 mb 0.00 in0.0 mm 0.00 in0.0 mm 0.00 in0.0 mm
08:55 AM 50.7°F10.4°C 43.8°F6.6°C 77% 9.2 mph ENE14.8 kmh ENE 14.3 mph23.0 kmh 29.93 in1013.5 mb 0.00 in0.0 mm 0.00 in0.0 mm 0.00 in0.0 mm
09:00 AM 50.7°F10.4°C 43.8°F6.6°C 77% 6.5 mph NE10.5 kmh NE 15.2 mph24.5 kmh 29.93 in1013.5 mb 0.00 in0.0 mm 0.00 in0.0 mm 0.00 in0.0 mm
09:05 AM 50.9°F10.5°C 43.9°F6.6°C 77% 4.7 mph NE7.6 kmh NE 15.2 mph24.5 kmh 29.93 in1013.5 mb 0.00 in0.0 mm 0.00 in0.0 mm 0.00 in0.0 mm
09:10 AM 50.7°F10.4°C 43.8°F6.6°C 77% 3.6 mph NE5.8 kmh NE 20.4 mph32.8 kmh 29.93 in1013.5 mb 0.00 in0.0 mm 0.00 in0.0 mm 0.00 in0.0 mm
09:15 AM 51.1°F10.6°C 44.1°F6.7°C 77% 11.9 mph NE19.2 kmh NE 20.4 mph32.8 kmh 29.93 in1013.5 mb 0.00 in0.0 mm 0.00 in0.0 mm 0.00 in0.0 mm
09:20 AM 51.1°F10.6°C 44.1°F6.7°C 77% 5.4 mph NE8.7 kmh NE 16.3 mph26.2 kmh 29.93 in1013.5 mb 0.00 in0.0 mm 0.00 in0.0 mm 0.00 in0.0 mm
09:25 AM 51.1°F10.6°C 44.1°F6.7°C 77% 7.6 mph NE12.2 kmh NE 16.3 mph26.2 kmh 29.93 in1013.5 mb 0.00 in0.0 mm 0.00 in0.0 mm 0.00 in0.0 mm
09:30 AM 51.1°F10.6°C 43.8°F6.6°C 76% 8.3 mph ENE13.4 kmh ENE 15.2 mph24.5 kmh 29.93 in1013.5 mb 0.00 in0.0 mm 0.00 in0.0 mm 0.00 in0.0 mm
09:35 AM 51.1°F10.6°C 43.8°F6.6°C 76% Calm Calm 12.8 mph20.6 kmh 29.93 in1013.5 mb 0.00 in0.0 mm 0.00 in0.0 mm 0.00 in0.0 mm
09:40 AM 51.3°F10.7°C 44.0°F6.7°C 76% 7.4 mph NE11.9 kmh NE 15.9 mph25.6 kmh 29.93 in1013.5 mb 0.00 in0.0 mm 0.00 in0.0 mm 0.00 in0.0 mm
09:45 AM 51.4°F10.8°C 43.8°F6.6°C 75% 11.2 mph NE18.0 kmh NE 15.9 mph25.6 kmh 29.93 in1013.5 mb 0.00 in0.0 mm 0.00 in0.0 mm 0.00 in0.0 mm
09:50 AM 51.6°F10.9°C 43.6°F6.4°C 74% 13.4 mph NE21.6 kmh NE 15.9 mph25.6 kmh 29.93 in1013.5 mb 0.00 in0.0 mm 0.00 in0.0 mm 0.00 in0.0 mm
09:55 AM 52.2°F11.2°C 43.4°F6.3°C 72% 9.8 mph NE15.8 kmh NE 15.9 mph25.6 kmh 29.93 in1013.5 mb 0.00 in0.0 mm 0.00 in0.0 mm 0.00 in0.0 mm
10:00 AM 52.5°F11.4°C 43.1°F6.2°C 70% 15.0 mph NE24.1 kmh NE 19.0 mph30.6 kmh 29.93 in1013.5 mb 0.00 in0.0 mm 0.00 in0.0 mm 0.00 in0.0 mm
10:05 AM 52.9°F11.6°C 43.0°F6.1°C 69% 2.5 mph NE4.0 kmh NE 19.0 mph30.6 kmh 29.93 in1013.5 mb 0.00 in0.0 mm 0.00 in0.0 mm 0.00 in0.0 mm
10:10 AM 53.2°F11.8°C 43.3°F6.3°C 69% 7.4 mph NE11.9 kmh NE 15.7 mph25.3 kmh 29.94 in1013.9 mb 0.00 in0.0 mm 0.00 in0.0 mm 0.00 in0.0 mm
10:15 AM 53.4°F11.9°C 43.1°F6.2°C 68% 13.0 mph ENE20.9 kmh ENE 16.6 mph26.7 kmh 29.93 in1013.5 mb 0.00 in0.0 mm 0.00 in0.0 mm 0.00 in0.0 mm
10:20 AM 53.4°F11.9°C 43.1°F6.2°C 68% 9.2 mph NE14.8 kmh NE 16.6 mph26.7 kmh 29.93 in1013.5 mb 0.00 in0.0 mm 0.00 in0.0 mm 0.00 in0.0 mm
10:25 AM 53.4°F11.9°C 42.7°F5.9°C 67% 13.4 mph NE21.6 kmh NE 20.4 mph32.8 kmh 29.93 in1013.5 mb 0.00 in0.0 mm 0.00 in0.0 mm 0.00 in0.0 mm
10:30 AM 53.8°F12.1°C 42.6°F5.9°C 66% 7.6 mph NE12.2 kmh NE 20.4 mph32.8 kmh 29.93 in1013.5 mb 0.00 in0.0 mm 0.00 in0.0 mm 0.00 in0.0 mm
10:35 AM 53.8°F12.1°C 43.0°F6.1°C 67% 11.9 mph NE19.2 kmh NE 19.7 mph31.7 kmh 29.93 in1013.5 mb 0.00 in0.0 mm 0.00 in0.0 mm 0.00 in0.0 mm
10:40 AM 54.0°F12.2°C 43.2°F6.2°C 67% 7.2 mph NE11.6 kmh NE 18.8 mph30.3 kmh 29.93 in1013.5 mb 0.00 in0.0 mm 0.00 in0.0 mm 0.00 in0.0 mm
10:45 AM 54.0°F12.2°C 43.2°F6.2°C 67% 17.4 mph NE28.0 kmh NE 21.3 mph34.3 kmh 29.93 in1013.5 mb 0.00 in0.0 mm 0.00 in0.0 mm 0.00 in0.0 mm
10:50 AM 54.1°F12.3°C 43.4°F6.3°C 67% 18.1 mph NE29.1 kmh NE 23.0 mph37.0 kmh 29.93 in1013.5 mb 0.00 in0.0 mm 0.00 in0.0 mm 0.00 in0.0 mm
10:55 AM 54.3°F12.4°C 43.6°F6.4°C 67% 13.0 mph NE20.9 kmh NE 23.0 mph37.0 kmh 29.93 in1013.5 mb 0.00 in0.0 mm 0.00 in0.0 mm 0.00 in0.0 mm
11:00 AM 54.3°F12.4°C 44.0°F6.7°C 68% 16.3 mph NE26.2 kmh NE 24.6 mph39.6 kmh 29.93 in1013.5 mb 0.00 in0.0 mm 0.00 in0.0 mm 0.00 in0.0 mm
11:05 AM 54.3°F12.4°C 44.0°F6.7°C 68% 9.6 mph NE15.4 kmh NE 24.6 mph39.6 kmh 29.93 in1013.5 mb 0.00 in0.0 mm 0.00 in0.0 mm 0.00 in0.0 mm
11:10 AM 54.3°F12.4°C 44.0°F6.7°C 68% 14.5 mph NE23.3 kmh NE 20.1 mph32.3 kmh 29.93 in1013.5 mb 0.00 in0.0 mm 0.00 in0.0 mm 0.00 in0.0 mm
11:15 AM 54.5°F12.5°C 44.2°F6.8°C 68% 15.0 mph NE24.1 kmh NE 21.7 mph34.9 kmh 29.93 in1013.5 mb 0.00 in0.0 mm 0.00 in0.0 mm 0.00 in0.0 mm
11:20 AM 54.5°F12.5°C 44.2°F6.8°C 68% 8.3 mph NE13.4 kmh NE 23.0 mph37.0 kmh 29.93 in1013.5 mb 0.00 in0.0 mm 0.00 in0.0 mm 0.00 in0.0 mm
11:25 AM 54.7°F12.6°C 44.3°F6.8°C 68% 11.4 mph NE18.3 kmh NE 23.0 mph37.0 kmh 29.93 in1013.5 mb 0.00 in0.0 mm 0.00 in0.0 mm 0.00 in0.0 mm
11:30 AM 54.7°F12.6°C 44.3°F6.8°C 68% 4.9 mph NE7.9 kmh NE 22.6 mph36.4 kmh 29.93 in1013.5 mb 0.00 in0.0 mm 0.00 in0.0 mm 0.00 in0.0 mm
11:35 AM 55.0°F12.8°C 44.7°F7.1°C 68% 8.7 mph NE14.0 kmh NE 16.3 mph26.2 kmh 29.93 in1013.5 mb 0.00 in0.0 mm 0.00 in0.0 mm 0.00 in0.0 mm
11:40 AM 54.9°F12.7°C 44.5°F6.9°C 68% 11.0 mph ENE17.7 kmh ENE 17.7 mph28.5 kmh 29.93 in1013.5 mb 0.00 in0.0 mm 0.00 in0.0 mm 0.00 in0.0 mm
11:45 AM 55.0°F12.8°C 44.7°F7.1°C 68% 6.5 mph ENE10.5 kmh ENE 17.7 mph28.5 kmh 29.93 in1013.5 mb 0.00 in0.0 mm 0.00 in0.0 mm 0.00 in0.0 mm
11:50 AM 55.0°F12.8°C 44.7°F7.1°C 68% 18.1 mph ENE29.1 kmh ENE 18.1 mph29.1 kmh 29.93 in1013.5 mb 0.00 in0.0 mm 0.00 in0.0 mm 0.00 in0.0 mm
11:55 AM 54.9°F12.7°C 44.5°F6.9°C 68% 14.1 mph NE22.7 kmh NE 19.7 mph31.7 kmh 29.93 in1013.5 mb 0.00 in0.0 mm 0.00 in0.0 mm 0.00 in0.0 mm
12:00 PM 55.0°F12.8°C 44.7°F7.1°C 68% 16.3 mph NE26.2 kmh NE 19.7 mph31.7 kmh 29.93 in1013.5 mb 0.00 in0.0 mm 0.00 in0.0 mm 0.00 in0.0 mm
12:05 PM 55.0°F12.8°C 44.3°F6.8°C 67% 10.5 mph ENE16.9 kmh ENE 21.5 mph34.6 kmh 29.93 in1013.5 mb 0.00 in0.0 mm 0.00 in0.0 mm 0.00 in0.0 mm
12:10 PM 55.0°F12.8°C 44.3°F6.8°C 67% 5.8 mph E9.3 kmh E 21.5 mph34.6 kmh 29.93 in1013.5 mb 0.00 in0.0 mm 0.00 in0.0 mm 0.00 in0.0 mm
12:15 PM 55.2°F12.9°C 44.4°F6.9°C 67% 8.7 mph E14.0 kmh E 15.0 mph24.1 kmh 29.92 in1013.2 mb 0.00 in0.0 mm 0.00 in0.0 mm 0.00 in0.0 mm
12:20 PM 55.2°F12.9°C 44.4°F6.9°C 67% 8.7 mph E14.0 kmh E 11.9 mph19.2 kmh 29.92 in1013.2 mb 0.00 in0.0 mm 0.00 in0.0 mm 0.00 in0.0 mm
12:25 PM 55.2°F12.9°C 44.0°F6.7°C 66% 6.9 mph ENE11.1 kmh ENE 15.0 mph24.1 kmh 29.92 in1013.2 mb 0.00 in0.0 mm 0.00 in0.0 mm 0.00 in0.0 mm
12:30 PM 55.2°F12.9°C 44.0°F6.7°C 66% 9.8 mph NE15.8 kmh NE 16.3 mph26.2 kmh 29.92 in1013.2 mb 0.00 in0.0 mm 0.00 in0.0 mm 0.00 in0.0 mm
12:35 PM 55.0°F12.8°C 43.8°F6.6°C 66% 8.9 mph ENE14.3 kmh ENE 16.3 mph26.2 kmh 29.92 in1013.2 mb 0.00 in0.0 mm 0.00 in0.0 mm 0.00 in0.0 mm
12:40 PM 54.9°F12.7°C 44.5°F6.9°C 68% 4.7 mph NE7.6 kmh NE 14.8 mph23.8 kmh 29.93 in1013.5 mb 0.00 in0.0 mm 0.00 in0.0 mm 0.00 in0.0 mm
12:45 PM 54.5°F12.5°C 44.2°F6.8°C 68% 6.5 mph NE10.5 kmh NE 21.5 mph34.6 kmh 29.93 in1013.5 mb 0.00 in0.0 mm 0.00 in0.0 mm 0.00 in0.0 mm
12:50 PM 54.3°F12.4°C 44.0°F6.7°C 68% 16.3 mph NE26.2 kmh NE 21.5 mph34.6 kmh 29.93 in1013.5 mb 0.00 in0.0 mm 0.00 in0.0 mm 0.00 in0.0 mm
12:55 PM 54.3°F12.4°C 44.4°F6.9°C 69% 13.0 mph NE20.9 kmh NE 18.8 mph30.3 kmh 29.93 in1013.5 mb 0.00 in0.0 mm 0.00 in0.0 mm 0.00 in0.0 mm
01:00 PM 54.1°F12.3°C 44.6°F7.0°C 70% 9.6 mph NE15.4 kmh NE 15.7 mph25.3 kmh 29.93 in1013.5 mb 0.00 in0.0 mm 0.00 in0.0 mm 0.00 in0.0 mm
01:05 PM 54.3°F12.4°C 44.8°F7.1°C 70% 8.9 mph ENE14.3 kmh ENE 13.6 mph21.9 kmh 29.93 in1013.5 mb 0.00 in0.0 mm 0.00 in0.0 mm 0.00 in0.0 mm
01:10 PM 54.5°F12.5°C 44.5°F6.9°C 69% 9.6 mph ENE15.4 kmh ENE 17.0 mph27.4 kmh 29.93 in1013.5 mb 0.00 in0.0 mm 0.00 in0.0 mm 0.00 in0.0 mm
01:15 PM 55.0°F12.8°C 44.7°F7.1°C 68% 11.2 mph ENE18.0 kmh ENE 18.3 mph29.5 kmh 29.93 in1013.5 mb 0.00 in0.0 mm 0.00 in0.0 mm 0.00 in0.0 mm
01:20 PM 55.2°F12.9°C 44.4°F6.9°C 67% 5.4 mph ENE8.7 kmh ENE 18.3 mph29.5 kmh 29.93 in1013.5 mb 0.00 in0.0 mm 0.00 in0.0 mm 0.00 in0.0 mm
01:25 PM 55.4°F13.0°C 44.6°F7.0°C 67% 9.6 mph NE15.4 kmh NE 16.3 mph26.2 kmh 29.92 in1013.2 mb 0.00 in0.0 mm 0.00 in0.0 mm 0.00 in0.0 mm
01:30 PM 55.6°F13.1°C 44.4°F6.9°C 66% 10.5 mph NE16.9 kmh NE 18.3 mph29.5 kmh 29.93 in1013.5 mb 0.00 in0.0 mm 0.00 in0.0 mm 0.00 in0.0 mm
01:35 PM 55.8°F13.2°C 44.5°F6.9°C 66% 9.8 mph NE15.8 kmh NE 18.3 mph29.5 kmh 29.93 in1013.5 mb 0.00 in0.0 mm 0.00 in0.0 mm 0.00 in0.0 mm
01:40 PM 56.1°F13.4°C 44.9°F7.2°C 66% 8.1 mph NE13.0 kmh NE 17.0 mph27.4 kmh 29.93 in1013.5 mb 0.00 in0.0 mm 0.00 in0.0 mm 0.00 in0.0 mm
01:45 PM 56.3°F13.5°C 44.6°F7.0°C 65% 11.9 mph NE19.2 kmh NE 19.0 mph30.6 kmh 29.93 in1013.5 mb 0.00 in0.0 mm 0.00 in0.0 mm 0.00 in0.0 mm
01:50 PM 56.1°F13.4°C 44.9°F7.2°C 66% 2.2 mph NE3.5 kmh NE 19.0 mph30.6 kmh 29.93 in1013.5 mb 0.00 in0.0 mm 0.00 in0.0 mm 0.00 in0.0 mm
02:00 PM 55.4°F13.0°C 44.6°F7.0°C 67% 8.9 mph NE14.3 kmh NE 17.2 mph27.7 kmh 29.93 in1013.5 mb 0.00 in0.0 mm 0.00 in0.0 mm 0.00 in0.0 mm
02:05 PM 55.2°F12.9°C 44.4°F6.9°C 67% 11.4 mph NNE18.3 kmh NNE 17.2 mph27.7 kmh 29.93 in1013.5 mb 0.00 in0.0 mm 0.00 in0.0 mm 0.00 in0.0 mm
02:10 PM 55.2°F12.9°C 44.0°F6.7°C 66% 11.4 mph NNE18.3 kmh NNE 16.3 mph26.2 kmh 29.93 in1013.5 mb 0.00 in0.0 mm 0.00 in0.0 mm 0.00 in0.0 mm
02:15 PM 55.4°F13.0°C 44.2°F6.8°C 66% 2.9 mph NNE4.7 kmh NNE 16.3 mph26.2 kmh 29.93 in1013.5 mb 0.00 in0.0 mm 0.00 in0.0 mm 0.00 in0.0 mm
02:20 PM 55.4°F13.0°C 44.2°F6.8°C 66% 3.1 mph NE5.0 kmh NE 12.3 mph19.8 kmh 29.93 in1013.5 mb 0.00 in0.0 mm 0.00 in0.0 mm 0.00 in0.0 mm
02:25 PM 55.2°F12.9°C 44.4°F6.9°C 67% Calm Calm 12.8 mph20.6 kmh 29.93 in1013.5 mb 0.00 in0.0 mm 0.00 in0.0 mm 0.00 in0.0 mm
02:30 PM 55.6°F13.1°C 45.2°F7.3°C 68% Calm Calm 12.8 mph20.6 kmh 29.93 in1013.5 mb 0.00 in0.0 mm 0.00 in0.0 mm 0.00 in0.0 mm
02:35 PM 55.9°F13.3°C 45.5°F7.5°C 68% Calm Calm 8.5 mph13.7 kmh 29.93 in1013.5 mb 0.00 in0.0 mm 0.00 in0.0 mm 0.00 in0.0 mm
02:40 PM 56.3°F13.5°C 44.6°F7.0°C 65% 1.8 mph SSE2.9 kmh SSE 9.6 mph15.4 kmh 29.92 in1013.2 mb 0.00 in0.0 mm 0.00 in0.0 mm 0.00 in0.0 mm
02:45 PM 56.5°F13.6°C 44.8°F7.1°C 65% 2.9 mph S4.7 kmh S 9.6 mph15.4 kmh 29.92 in1013.2 mb 0.00 in0.0 mm 0.00 in0.0 mm 0.00 in0.0 mm
02:50 PM 56.5°F13.6°C 44.4°F6.9°C 64% 2.9 mph SE4.7 kmh SE 9.6 mph15.4 kmh 29.92 in1013.2 mb 0.00 in0.0 mm 0.00 in0.0 mm 0.00 in0.0 mm
02:55 PM 56.5°F13.6°C 44.8°F7.1°C 65% 1.1 mph SE1.8 kmh SE 7.2 mph11.6 kmh 29.92 in1013.2 mb 0.00 in0.0 mm 0.00 in0.0 mm 0.00 in0.0 mm
03:00 PM 56.5°F13.6°C 44.4°F6.9°C 64% 11.9 mph ESE19.2 kmh ESE 11.9 mph19.2 kmh 29.92 in1013.2 mb 0.00 in0.0 mm 0.00 in0.0 mm 0.00 in0.0 mm
03:05 PM 55.9°F13.3°C 44.3°F6.8°C 65% 7.4 mph NE11.9 kmh NE 16.3 mph26.2 kmh 29.92 in1013.2 mb 0.00 in0.0 mm 0.00 in0.0 mm 0.00 in0.0 mm
03:10 PM 55.6°F13.1°C 44.4°F6.9°C 66% 5.1 mph NE8.2 kmh NE 17.4 mph28.0 kmh 29.92 in1013.2 mb 0.00 in0.0 mm 0.00 in0.0 mm 0.00 in0.0 mm
03:15 PM 55.4°F13.0°C 44.2°F6.8°C 66% 4.3 mph NE6.9 kmh NE 17.4 mph28.0 kmh 29.92 in1013.2 mb 0.00 in0.0 mm 0.00 in0.0 mm 0.00 in0.0 mm
03:20 PM 55.0°F12.8°C 44.7°F7.1°C 68% 11.2 mph NE18.0 kmh NE 15.9 mph25.6 kmh 29.92 in1013.2 mb 0.00 in0.0 mm 0.00 in0.0 mm 0.00 in0.0 mm
03:25 PM 54.7°F12.6°C 44.9°F7.2°C 69% 9.2 mph NE14.8 kmh NE 16.1 mph25.9 kmh 29.92 in1013.2 mb 0.00 in0.0 mm 0.00 in0.0 mm 0.00 in0.0 mm
03:30 PM 54.5°F12.5°C 44.5°F6.9°C 69% 6.7 mph NE10.8 kmh NE 17.9 mph28.8 kmh 29.92 in1013.2 mb 0.00 in0.0 mm 0.00 in0.0 mm 0.00 in0.0 mm
03:35 PM 54.3°F12.4°C 44.8°F7.1°C 70% 1.8 mph NE2.9 kmh NE 17.9 mph28.8 kmh 29.92 in1013.2 mb 0.00 in0.0 mm 0.00 in0.0 mm 0.00 in0.0 mm
03:40 PM 54.3°F12.4°C 44.8°F7.1°C 70% 3.6 mph NE5.8 kmh NE 15.2 mph24.5 kmh 29.93 in1013.5 mb 0.00 in0.0 mm 0.00 in0.0 mm 0.00 in0.0 mm
03:45 PM 54.1°F12.3°C 44.6°F7.0°C 70% 1.1 mph E1.8 kmh E 7.4 mph11.9 kmh 29.92 in1013.2 mb 0.00 in0.0 mm 0.00 in0.0 mm 0.00 in0.0 mm
03:50 PM 54.0°F12.2°C 44.8°F7.1°C 71% 4.3 mph ENE6.9 kmh ENE 8.3 mph13.4 kmh 29.92 in1013.2 mb 0.00 in0.0 mm 0.00 in0.0 mm 0.00 in0.0 mm
03:55 PM 53.8°F12.1°C 44.6°F7.0°C 71% Calm Calm 10.7 mph17.2 kmh 29.92 in1013.2 mb 0.00 in0.0 mm 0.00 in0.0 mm 0.00 in0.0 mm
04:00 PM 53.8°F12.1°C 44.6°F7.0°C 71% 2.0 mph ENE3.2 kmh ENE 10.7 mph17.2 kmh 29.92 in1013.2 mb 0.00 in0.0 mm 0.00 in0.0 mm 0.00 in0.0 mm
04:05 PM 53.8°F12.1°C 44.9°F7.2°C 72% 4.0 mph ENE6.4 kmh ENE 12.1 mph19.5 kmh 29.92 in1013.2 mb 0.00 in0.0 mm 0.00 in0.0 mm 0.00 in0.0 mm
04:10 PM 53.8°F12.1°C 45.3°F7.4°C 73% 3.8 mph ENE6.1 kmh ENE 12.1 mph19.5 kmh 29.92 in1013.2 mb 0.00 in0.0 mm 0.00 in0.0 mm 0.00 in0.0 mm
04:15 PM 53.6°F12.0°C 44.8°F7.1°C 72% 11.9 mph NE19.2 kmh NE 14.3 mph23.0 kmh 29.93 in1013.5 mb 0.00 in0.0 mm 0.00 in0.0 mm 0.00 in0.0 mm
04:20 PM 53.4°F11.9°C 45.0°F7.2°C 73% 12.1 mph NE19.5 kmh NE 18.3 mph29.5 kmh 29.92 in1013.2 mb 0.00 in0.0 mm 0.00 in0.0 mm 0.00 in0.0 mm
04:25 PM 53.4°F11.9°C 45.0°F7.2°C 73% 3.6 mph NE5.8 kmh NE 18.3 mph29.5 kmh 29.92 in1013.2 mb 0.00 in0.0 mm 0.00 in0.0 mm 0.00 in0.0 mm
04:30 PM 53.4°F11.9°C 45.0°F7.2°C 73% 4.9 mph NE7.9 kmh NE 17.4 mph28.0 kmh 29.92 in1013.2 mb 0.00 in0.0 mm 0.00 in0.0 mm 0.00 in0.0 mm
04:35 PM 53.2°F11.8°C 44.8°F7.1°C 73% 6.9 mph ENE11.1 kmh ENE 14.1 mph22.7 kmh 29.92 in1013.2 mb 0.00 in0.0 mm 0.00 in0.0 mm 0.00 in0.0 mm
04:40 PM 52.9°F11.6°C 44.8°F7.1°C 74% 11.4 mph NE18.3 kmh NE 13.2 mph21.2 kmh 29.92 in1013.2 mb 0.00 in0.0 mm 0.00 in0.0 mm 0.00 in0.0 mm
04:45 PM 52.9°F11.6°C 44.8°F7.1°C 74% 4.3 mph NE6.9 kmh NE 13.2 mph21.2 kmh 29.92 in1013.2 mb 0.00 in0.0 mm 0.00 in0.0 mm 0.00 in0.0 mm
04:50 PM 52.7°F11.5°C 45.0°F7.2°C 75% 2.2 mph E3.5 kmh E 12.1 mph19.5 kmh 29.93 in1013.5 mb 0.00 in0.0 mm 0.00 in0.0 mm 0.00 in0.0 mm
04:55 PM 52.7°F11.5°C 45.0°F7.2°C 75% 1.1 mph SE1.8 kmh SE 8.9 mph14.3 kmh 29.93 in1013.5 mb 0.00 in0.0 mm 0.00 in0.0 mm 0.00 in0.0 mm
05:00 PM 52.5°F11.4°C 44.8°F7.1°C 75% 10.5 mph SE16.9 kmh SE 10.5 mph16.9 kmh 29.93 in1013.5 mb 0.00 in0.0 mm 0.00 in0.0 mm 0.00 in0.0 mm
05:05 PM 52.5°F11.4°C 44.8°F7.1°C 75% 1.8 mph ESE2.9 kmh ESE 10.5 mph16.9 kmh 29.93 in1013.5 mb 0.00 in0.0 mm 0.00 in0.0 mm 0.00 in0.0 mm
05:10 PM 52.3°F11.3°C 45.0°F7.2°C 76% Calm Calm 8.5 mph13.7 kmh 29.93 in1013.5 mb 0.00 in0.0 mm 0.00 in0.0 mm 0.00 in0.0 mm
05:15 PM 52.3°F11.3°C 45.0°F7.2°C 76% 3.6 mph E5.8 kmh E 8.1 mph13.0 kmh 29.93 in1013.5 mb 0.00 in0.0 mm 0.00 in0.0 mm 0.00 in0.0 mm
05:20 PM 52.2°F11.2°C 45.2°F7.3°C 77% 10.5 mph ENE16.9 kmh ENE 13.2 mph21.2 kmh 29.94 in1013.9 mb 0.00 in0.0 mm 0.00 in0.0 mm 0.00 in0.0 mm
05:25 PM 52.0°F11.1°C 45.0°F7.2°C 77% 10.5 mph NE16.9 kmh NE 13.2 mph21.2 kmh 29.94 in1013.9 mb 0.00 in0.0 mm 0.00 in0.0 mm 0.00 in0.0 mm
05:30 PM 51.6°F10.9°C 44.7°F7.1°C 77% 4.3 mph NE6.9 kmh NE 13.2 mph21.2 kmh 29.94 in1013.9 mb 0.00 in0.0 mm 0.00 in0.0 mm 0.00 in0.0 mm
05:35 PM 51.6°F10.9°C 45.0°F7.2°C 78% 5.6 mph ENE9.0 kmh ENE 11.6 mph18.7 kmh 29.93 in1013.5 mb 0.00 in0.0 mm 0.00 in0.0 mm 0.00 in0.0 mm
05:40 PM 51.1°F10.6°C 44.8°F7.1°C 79% 2.5 mph ENE4.0 kmh ENE 8.9 mph14.3 kmh 29.93 in1013.5 mb 0.00 in0.0 mm 0.00 in0.0 mm 0.00 in0.0 mm
05:45 PM 50.9°F10.5°C 44.6°F7.0°C 79% 2.0 mph ENE3.2 kmh ENE 6.3 mph10.1 kmh 29.94 in1013.9 mb 0.00 in0.0 mm 0.00 in0.0 mm 0.00 in0.0 mm
05:50 PM 50.7°F10.4°C 44.4°F6.9°C 79% 2.7 mph SSW4.3 kmh SSW 4.7 mph7.6 kmh 29.94 in1013.9 mb 0.00 in0.0 mm 0.00 in0.0 mm 0.00 in0.0 mm
05:55 PM 50.2°F10.1°C 44.2°F6.8°C 80% 1.8 mph SW2.9 kmh SW 4.7 mph7.6 kmh 29.94 in1013.9 mb 0.00 in0.0 mm 0.00 in0.0 mm 0.00 in0.0 mm
06:00 PM 50.2°F10.1°C 44.5°F6.9°C 81% 5.4 mph SW8.7 kmh SW 5.4 mph8.7 kmh 29.94 in1013.9 mb 0.00 in0.0 mm 0.00 in0.0 mm 0.00 in0.0 mm
06:05 PM 50.7°F10.4°C 45.1°F7.3°C 81% 5.1 mph SSE8.2 kmh SSE 6.3 mph10.1 kmh 29.94 in1013.9 mb 0.00 in0.0 mm 0.00 in0.0 mm 0.00 in0.0 mm
06:10 PM 50.9°F10.5°C 45.3°F7.4°C 81% 3.8 mph E6.1 kmh E 8.7 mph14.0 kmh 29.94 in1013.9 mb 0.00 in0.0 mm 0.00 in0.0 mm 0.00 in0.0 mm
06:15 PM 51.1°F10.6°C 45.4°F7.4°C 81% Calm Calm 8.7 mph14.0 kmh 29.95 in1014.2 mb 0.00 in0.0 mm 0.00 in0.0 mm 0.00 in0.0 mm
06:20 PM 50.9°F10.5°C 45.3°F7.4°C 81% Calm Calm 5.4 mph8.7 kmh 29.95 in1014.2 mb 0.00 in0.0 mm 0.00 in0.0 mm 0.00 in0.0 mm
06:25 PM 50.4°F10.2°C 44.7°F7.1°C 81% 2.9 mph SW4.7 kmh SW 4.5 mph7.2 kmh 29.94 in1013.9 mb 0.00 in0.0 mm 0.00 in0.0 mm 0.00 in0.0 mm
06:30 PM 49.8°F9.9°C 44.5°F6.9°C 82% Calm Calm 4.0 mph6.4 kmh 29.94 in1013.9 mb 0.00 in0.0 mm 0.00 in0.0 mm 0.00 in0.0 mm
06:35 PM 49.6°F9.8°C 44.3°F6.8°C 82% Calm Calm 3.1 mph5.0 kmh 29.95 in1014.2 mb 0.00 in0.0 mm 0.00 in0.0 mm 0.00 in0.0 mm
06:40 PM 49.3°F9.6°C 44.3°F6.8°C 83% Calm Calm 2.2 mph3.5 kmh 29.94 in1013.9 mb 0.00 in0.0 mm 0.00 in0.0 mm 0.00 in0.0 mm
06:45 PM 49.3°F9.6°C 44.3°F6.8°C 83% 3.1 mph SW5.0 kmh SW 3.6 mph5.8 kmh 29.95 in1014.2 mb 0.00 in0.0 mm 0.00 in0.0 mm 0.00 in0.0 mm
06:50 PM 48.9°F9.4°C 43.9°F6.6°C 83% 2.0 mph SW3.2 kmh SW 4.5 mph7.2 kmh 29.94 in1013.9 mb 0.00 in0.0 mm 0.00 in0.0 mm 0.00 in0.0 mm
06:55 PM 48.6°F9.2°C 43.6°F6.4°C 83% 1.3 mph SW2.1 kmh SW 5.8 mph9.3 kmh 29.95 in1014.2 mb 0.00 in0.0 mm 0.00 in0.0 mm 0.00 in0.0 mm
07:00 PM 48.2°F9.0°C 43.6°F6.4°C 84% 2.5 mph SW4.0 kmh SW 5.8 mph9.3 kmh 29.94 in1013.9 mb 0.00 in0.0 mm 0.00 in0.0 mm 0.00 in0.0 mm
07:05 PM 48.0°F8.9°C 43.4°F6.3°C 84% 2.5 mph SW4.0 kmh SW 4.7 mph7.6 kmh 29.94 in1013.9 mb 0.00 in0.0 mm 0.00 in0.0 mm 0.00 in0.0 mm
07:10 PM 48.0°F8.9°C 43.4°F6.3°C 84% 3.6 mph SW5.8 kmh SW 4.3 mph6.9 kmh 29.94 in1013.9 mb 0.00 in0.0 mm 0.00 in0.0 mm 0.00 in0.0 mm
07:15 PM 47.8°F8.8°C 43.2°F6.2°C 84% Calm Calm 4.3 mph6.9 kmh 29.95 in1014.2 mb 0.00 in0.0 mm 0.00 in0.0 mm 0.00 in0.0 mm
07:20 PM 47.8°F8.8°C 43.5°F6.4°C 85% 3.8 mph WSW6.1 kmh WSW 4.0 mph6.4 kmh 29.95 in1014.2 mb 0.00 in0.0 mm 0.00 in0.0 mm 0.00 in0.0 mm
07:25 PM 47.8°F8.8°C 43.5°F6.4°C 85% 2.5 mph SW4.0 kmh SW 6.0 mph9.7 kmh 29.95 in1014.2 mb 0.00 in0.0 mm 0.00 in0.0 mm 0.00 in0.0 mm
07:30 PM 47.7°F8.7°C 43.4°F6.3°C 85% 3.4 mph SW5.5 kmh SW 6.0 mph9.7 kmh 29.95 in1014.2 mb 0.00 in0.0 mm 0.00 in0.0 mm 0.00 in0.0 mm
07:35 PM 47.5°F8.6°C 43.2°F6.2°C 85% 4.0 mph SW6.4 kmh SW 5.1 mph8.2 kmh 29.95 in1014.2 mb 0.00 in0.0 mm 0.00 in0.0 mm 0.00 in0.0 mm
07:40 PM 47.3°F8.5°C 43.0°F6.1°C 85% 2.7 mph SW4.3 kmh SW 5.8 mph9.3 kmh 29.95 in1014.2 mb 0.00 in0.0 mm 0.00 in0.0 mm 0.00 in0.0 mm
07:45 PM 47.1°F8.4°C 42.9°F6.1°C 85% 3.1 mph SW5.0 kmh SW 5.8 mph9.3 kmh 29.95 in1014.2 mb 0.00 in0.0 mm 0.00 in0.0 mm 0.00 in0.0 mm
07:50 PM 47.1°F8.4°C 42.9°F6.1°C 85% 2.0 mph SW3.2 kmh SW 4.0 mph6.4 kmh 29.95 in1014.2 mb 0.00 in0.0 mm 0.00 in0.0 mm 0.00 in0.0 mm
07:55 PM 46.9°F8.3°C 42.7°F5.9°C 85% 1.1 mph SW1.8 kmh SW 4.0 mph6.4 kmh 29.95 in1014.2 mb 0.00 in0.0 mm 0.00 in0.0 mm 0.00 in0.0 mm
08:00 PM 46.8°F8.2°C 42.5°F5.8°C 85% 3.4 mph SW5.5 kmh SW 4.0 mph6.4 kmh 29.95 in1014.2 mb 0.00 in0.0 mm 0.00 in0.0 mm 0.00 in0.0 mm
08:05 PM 46.6°F8.1°C 42.3°F5.7°C 85% 2.2 mph SW3.5 kmh SW 4.0 mph6.4 kmh 29.95 in1014.2 mb 0.00 in0.0 mm 0.00 in0.0 mm 0.00 in0.0 mm
08:10 PM 46.6°F8.1°C 42.6°F5.9°C 86% 3.8 mph SW6.1 kmh SW 6.0 mph9.7 kmh 29.96 in1014.6 mb 0.00 in0.0 mm 0.00 in0.0 mm 0.00 in0.0 mm
08:15 PM 46.8°F8.2°C 42.8°F6.0°C 86% 4.7 mph SW7.6 kmh SW 7.8 mph12.6 kmh 29.95 in1014.2 mb 0.00 in0.0 mm 0.00 in0.0 mm 0.00 in0.0 mm
08:20 PM 46.6°F8.1°C 42.6°F5.9°C 86% 6.3 mph SW10.1 kmh SW 7.8 mph12.6 kmh 29.96 in1014.6 mb 0.00 in0.0 mm 0.00 in0.0 mm 0.00 in0.0 mm
08:25 PM 46.6°F8.1°C 42.6°F5.9°C 86% 2.7 mph SW4.3 kmh SW 7.4 mph11.9 kmh 29.96 in1014.6 mb 0.00 in0.0 mm 0.00 in0.0 mm 0.00 in0.0 mm
08:30 PM 46.6°F8.1°C 42.6°F5.9°C 86% 3.6 mph SW5.8 kmh SW 6.5 mph10.5 kmh 29.95 in1014.2 mb 0.00 in0.0 mm 0.00 in0.0 mm 0.00 in0.0 mm
08:35 PM 46.6°F8.1°C 42.6°F5.9°C 86% 2.5 mph SW4.0 kmh SW 7.8 mph12.6 kmh 29.96 in1014.6 mb 0.00 in0.0 mm 0.00 in0.0 mm 0.00 in0.0 mm
08:40 PM 46.6°F8.1°C 42.6°F5.9°C 86% 1.1 mph SW1.8 kmh SW 7.8 mph12.6 kmh 29.96 in1014.6 mb 0.00 in0.0 mm 0.00 in0.0 mm 0.00 in0.0 mm
08:45 PM 46.2°F7.9°C 42.3°F5.7°C 86% 2.9 mph SW4.7 kmh SW 5.1 mph8.2 kmh 29.96 in1014.6 mb 0.00 in0.0 mm 0.00 in0.0 mm 0.00 in0.0 mm
08:50 PM 46.2°F7.9°C 42.3°F5.7°C 86% 2.2 mph SW3.5 kmh SW 4.7 mph7.6 kmh 29.96 in1014.6 mb 0.00 in0.0 mm 0.00 in0.0 mm 0.00 in0.0 mm
08:55 PM 46.2°F7.9°C 42.3°F5.7°C 86% 1.3 mph SW2.1 kmh SW 5.4 mph8.7 kmh 29.96 in1014.6 mb 0.00 in0.0 mm 0.00 in0.0 mm 0.00 in0.0 mm
09:00 PM 46.2°F7.9°C 42.3°F5.7°C 86% 1.3 mph SW2.1 kmh SW 5.4 mph8.7 kmh 29.96 in1014.6 mb 0.00 in0.0 mm 0.00 in0.0 mm 0.00 in0.0 mm
09:05 PM 46.2°F7.9°C 42.3°F5.7°C 86% 1.3 mph S2.1 kmh S 2.9 mph4.7 kmh 29.96 in1014.6 mb 0.00 in0.0 mm 0.00 in0.0 mm 0.00 in0.0 mm
09:10 PM 46.2°F7.9°C 42.3°F5.7°C 86% 0.9 mph S1.4 kmh S 2.9 mph4.7 kmh 29.96 in1014.6 mb 0.00 in0.0 mm 0.00 in0.0 mm 0.00 in0.0 mm
09:15 PM 46.0°F7.8°C 42.1°F5.6°C 86% Calm Calm 1.6 mph2.6 kmh 29.96 in1014.6 mb 0.00 in0.0 mm 0.00 in0.0 mm 0.00 in0.0 mm
09:20 PM 45.7°F7.6°C 41.8°F5.4°C 86% Calm Calm 1.1 mph1.8 kmh 29.96 in1014.6 mb 0.00 in0.0 mm 0.00 in0.0 mm 0.00 in0.0 mm
09:25 PM 45.5°F7.5°C 41.6°F5.3°C 86% Calm Calm -- 29.96 in1014.6 mb 0.00 in0.0 mm 0.00 in0.0 mm 0.00 in0.0 mm
09:30 PM 45.5°F7.5°C 41.6°F5.3°C 86% Calm Calm 1.3 mph2.1 kmh 29.96 in1014.6 mb 0.00 in0.0 mm 0.00 in0.0 mm 0.00 in0.0 mm
09:35 PM 45.1°F7.3°C 41.2°F5.1°C 86% Calm Calm 1.3 mph2.1 kmh 29.96 in1014.6 mb 0.00 in0.0 mm 0.00 in0.0 mm 0.00 in0.0 mm
09:40 PM 45.3°F7.4°C 41.7°F5.4°C 87% Calm Calm 2.0 mph3.2 kmh 29.96 in1014.6 mb 0.00 in0.0 mm 0.00 in0.0 mm 0.00 in0.0 mm
09:45 PM 45.3°F7.4°C 41.7°F5.4°C 87% Calm Calm 2.0 mph3.2 kmh 29.96 in1014.6 mb 0.00 in0.0 mm 0.00 in0.0 mm 0.00 in0.0 mm
09:50 PM 45.3°F7.4°C 41.7°F5.4°C 87% Calm Calm 2.0 mph3.2 kmh 29.95 in1014.2 mb 0.00 in0.0 mm 0.00 in0.0 mm 0.00 in0.0 mm
09:55 PM 45.3°F7.4°C 41.7°F5.4°C 87% Calm Calm 2.0 mph3.2 kmh 29.96 in1014.6 mb 0.00 in0.0 mm 0.00 in0.0 mm 0.00 in0.0 mm
10:00 PM 45.1°F7.3°C 41.5°F5.3°C 87% Calm Calm -- 29.95 in1014.2 mb 0.00 in0.0 mm 0.00 in0.0 mm 0.00 in0.0 mm
10:05 PM 45.1°F7.3°C 41.5°F5.3°C 87% Calm Calm -- 29.95 in1014.2 mb 0.00 in0.0 mm 0.00 in0.0 mm 0.00 in0.0 mm
10:10 PM 45.0°F7.2°C 41.3°F5.2°C 87% Calm Calm 1.1 mph1.8 kmh 29.95 in1014.2 mb 0.00 in0.0 mm 0.00 in0.0 mm 0.00 in0.0 mm
10:15 PM 45.0°F7.2°C 41.6°F5.3°C 88% Calm Calm 1.8 mph2.9 kmh 29.95 in1014.2 mb 0.00 in0.0 mm 0.00 in0.0 mm 0.00 in0.0 mm
10:20 PM 45.0°F7.2°C 41.6°F5.3°C 88% Calm Calm 1.8 mph2.9 kmh 29.96 in1014.6 mb 0.00 in0.0 mm 0.00 in0.0 mm 0.00 in0.0 mm
10:25 PM 44.8°F7.1°C 41.5°F5.3°C 88% Calm Calm 1.1 mph1.8 kmh 29.96 in1014.6 mb 0.00 in0.0 mm 0.00 in0.0 mm 0.00 in0.0 mm
10:30 PM 44.8°F7.1°C 41.5°F5.3°C 88% Calm Calm 1.3 mph2.1 kmh 29.96 in1014.6 mb 0.00 in0.0 mm 0.00 in0.0 mm 0.00 in0.0 mm
10:35 PM 44.8°F7.1°C 41.5°F5.3°C 88% 2.0 mph SW3.2 kmh SW 2.5 mph4.0 kmh 29.96 in1014.6 mb 0.00 in0.0 mm 0.00 in0.0 mm 0.00 in0.0 mm
10:40 PM 44.8°F7.1°C 41.5°F5.3°C 88% Calm Calm 2.5 mph4.0 kmh 29.96 in1014.6 mb 0.00 in0.0 mm 0.00 in0.0 mm 0.00 in0.0 mm
10:45 PM 44.8°F7.1°C 41.5°F5.3°C 88% Calm Calm 2.0 mph3.2 kmh 29.96 in1014.6 mb 0.00 in0.0 mm 0.00 in0.0 mm 0.00 in0.0 mm
10:50 PM 44.8°F7.1°C 41.5°F5.3°C 88% Calm Calm 1.3 mph2.1 kmh 29.96 in1014.6 mb 0.00 in0.0 mm 0.00 in0.0 mm 0.00 in0.0 mm
10:55 PM 44.8°F7.1°C 41.5°F5.3°C 88% Calm Calm 1.3 mph2.1 kmh 29.95 in1014.2 mb 0.00 in0.0 mm 0.00 in0.0 mm 0.00 in0.0 mm
11:00 PM 44.8°F7.1°C 41.5°F5.3°C 88% Calm Calm 0.9 mph1.4 kmh 29.95 in1014.2 mb 0.00 in0.0 mm 0.00 in0.0 mm 0.00 in0.0 mm
11:05 PM 44.8°F7.1°C 41.5°F5.3°C 88% Calm Calm 0.9 mph1.4 kmh 29.96 in1014.6 mb 0.00 in0.0 mm 0.00 in0.0 mm 0.00 in0.0 mm
11:10 PM 44.6°F7.0°C 41.3°F5.2°C 88% Calm Calm 0.9 mph1.4 kmh 29.96 in1014.6 mb 0.00 in0.0 mm 0.00 in0.0 mm 0.00 in0.0 mm
11:15 PM 44.6°F7.0°C 41.3°F5.2°C 88% Calm Calm -- 29.96 in1014.6 mb 0.00 in0.0 mm 0.00 in0.0 mm 0.00 in0.0 mm
11:20 PM 44.4°F6.9°C 41.1°F5.1°C 88% Calm Calm -- 29.96 in1014.6 mb 0.00 in0.0 mm 0.00 in0.0 mm 0.00 in0.0 mm
11:25 PM 44.8°F7.1°C 41.5°F5.3°C 88% 0.9 mph SW1.4 kmh SW 2.5 mph4.0 kmh 29.96 in1014.6 mb 0.00 in0.0 mm 0.00 in0.0 mm 0.00 in0.0 mm
11:30 PM 45.0°F7.2°C 42.0°F5.6°C 89% Calm Calm 4.0 mph6.4 kmh 29.96 in1014.6 mb 0.00 in0.0 mm 0.00 in0.0 mm 0.00 in0.0 mm
11:35 PM 45.0°F7.2°C 42.0°F5.6°C 89% 1.3 mph SW2.1 kmh SW 4.0 mph6.4 kmh 29.96 in1014.6 mb 0.00 in0.0 mm 0.00 in0.0 mm 0.00 in0.0 mm
11:40 PM 44.8°F7.1°C 41.5°F5.3°C 88% 1.3 mph WSW2.1 kmh WSW 1.3 mph2.1 kmh 29.96 in1014.6 mb 0.00 in0.0 mm 0.00 in0.0 mm 0.00 in0.0 mm
11:45 PM 44.8°F7.1°C 41.8°F5.4°C 89% Calm Calm 2.9 mph4.7 kmh 29.96 in1014.6 mb 0.00 in0.0 mm 0.00 in0.0 mm 0.00 in0.0 mm
11:50 PM 45.0°F7.2°C 42.0°F5.6°C 89% 4.9 mph SW7.9 kmh SW 6.7 mph10.8 kmh 29.96 in1014.6 mb 0.00 in0.0 mm 0.00 in0.0 mm 0.00 in0.0 mm
11:55 PM 45.5°F7.5°C 42.5°F5.8°C 89% 6.7 mph SW10.8 kmh SW 9.4 mph15.1 kmh 29.96 in1014.6 mb 0.00 in0.0 mm 0.00 in0.0 mm 0.00 in0.0 mm